createdAt,value
2022-08-22T00:06:06.374Z,18.4
2022-08-22T00:16:06.566Z,18.3
2022-08-22T00:26:06.856Z,18.1
2022-08-22T00:46:08.746Z,17.6
2022-08-22T00:56:08.933Z,17.6
2022-08-22T01:06:08.965Z,17.5
2022-08-22T01:16:09.321Z,17.3
2022-08-22T01:26:09.971Z,17.3
2022-08-22T01:36:10.570Z,17.2
2022-08-22T01:46:10.922Z,16.8
2022-08-22T01:56:11.447Z,16.8
2022-08-22T02:06:13.337Z,16.7
2022-08-22T02:16:12.682Z,16.5
2022-08-22T02:26:13.356Z,16.5
2022-08-22T02:36:13.663Z,16.4
2022-08-22T02:56:15.523Z,16.3
2022-08-22T03:16:16.574Z,16
2022-08-22T03:26:23.826Z,15.9
2022-08-22T03:46:18.364Z,15.6
2022-08-22T03:56:18.730Z,15.6
2022-08-22T04:06:19.388Z,15.4
2022-08-22T04:16:26.743Z,15.4
2022-08-22T04:26:20.371Z,15.6
2022-08-22T04:36:20.611Z,15.4
2022-08-22T04:46:21.201Z,15.3
2022-08-22T04:56:21.983Z,15.3
2022-08-22T05:06:22.900Z,16.1
2022-08-22T05:16:23.699Z,16.3
2022-08-22T05:26:23.960Z,16.4
2022-08-22T05:36:24.883Z,17
2022-08-22T05:46:26.839Z,17.4
2022-08-22T05:56:25.572Z,17.7
2022-08-22T06:06:25.432Z,18.1
2022-08-22T06:16:26.174Z,19.5
2022-08-22T06:26:26.471Z,18.8
2022-08-22T06:36:27.177Z,19.1
2022-08-22T06:46:27.544Z,19.1
2022-08-22T06:56:27.712Z,18.2
2022-08-22T07:06:28.219Z,18.2
2022-08-22T07:16:28.683Z,18
2022-08-22T07:26:29.379Z,18.3
2022-08-22T07:36:31.896Z,18.7
2022-08-22T07:46:30.379Z,19.5
2022-08-22T07:56:30.777Z,21.8
2022-08-22T08:06:31.175Z,20.2
2022-08-22T08:16:31.593Z,20.6
2022-08-22T08:26:32.162Z,21.5
2022-08-22T08:36:32.309Z,23
2022-08-22T08:46:33.085Z,24.3
2022-08-22T08:56:33.195Z,25.2
2022-08-22T09:06:33.462Z,24.7
2022-08-22T09:26:34.890Z,25.4
2022-08-22T09:36:35.075Z,24.8
2022-08-22T09:46:36.579Z,24.8
2022-08-22T10:06:36.610Z,25.6
2022-08-22T10:16:36.870Z,26.7
2022-08-22T10:26:38.839Z,25.9
2022-08-22T10:36:37.980Z,26.4
2022-08-22T10:46:38.829Z,26.2
2022-08-22T10:56:39.087Z,26.5
2022-08-22T11:06:39.655Z,26.4
2022-08-22T11:16:41.522Z,27.4
2022-08-22T11:26:46.599Z,27
2022-08-22T11:46:40.806Z,27
2022-08-22T11:56:41.500Z,27.1
2022-08-22T12:06:42.167Z,27
2022-08-22T12:16:42.644Z,27
2022-08-22T12:26:49.711Z,27.7
2022-08-22T12:36:43.104Z,27.2
2022-08-22T12:46:46.699Z,27.3
2022-08-22T12:56:47.342Z,27.4
2022-08-22T13:06:48.715Z,27.3
2022-08-22T13:26:45.213Z,27.2
2022-08-22T13:36:46.190Z,27.7
2022-08-22T13:47:11.095Z,28
2022-08-22T13:56:47.238Z,28.1
2022-08-22T14:06:47.333Z,27.9
2022-08-22T14:16:53.153Z,28
2022-08-22T14:26:53.910Z,27.9
2022-08-22T14:46:55.406Z,27.8
2022-08-22T14:56:56.298Z,27.9
2022-08-22T15:06:57.793Z,28
2022-08-22T15:16:57.578Z,27.9
2022-08-22T15:26:58.220Z,27.9
2022-08-22T15:36:58.818Z,27.9
2022-08-22T15:46:59.083Z,27.8
2022-08-22T15:56:59.900Z,27.5
2022-08-22T16:07:00.803Z,27.4
2022-08-22T16:17:01.024Z,27.5
2022-08-22T16:27:01.253Z,27.2
2022-08-22T16:37:01.633Z,27.2
2022-08-22T16:47:01.778Z,27.3
2022-08-22T16:57:02.203Z,27.3
2022-08-22T17:07:02.779Z,27.3
2022-08-22T17:17:03.581Z,27.1
2022-08-22T17:27:03.609Z,26.9
2022-08-22T17:37:04.041Z,26.9
2022-08-22T17:47:04.747Z,26.8
2022-08-22T17:57:05.617Z,26.7
2022-08-22T18:07:05.212Z,26.2
2022-08-22T18:17:06.072Z,26.1
2022-08-22T18:27:06.756Z,25.6
2022-08-22T18:37:07.365Z,25.1
2022-08-22T18:47:07.596Z,25.1
2022-08-22T18:57:07.723Z,24.9
2022-08-22T19:07:08.147Z,24.6
2022-08-22T19:17:08.309Z,24.6
2022-08-22T19:27:09.206Z,24.3
2022-08-22T19:37:09.571Z,24
2022-08-22T19:47:10.374Z,23.9
2022-08-22T19:57:11.099Z,23.8
2022-08-22T20:07:14.531Z,23.8
2022-08-22T20:17:11.851Z,23.6
2022-08-22T20:27:14.238Z,23.4
2022-08-22T20:37:29.218Z,23.1
2022-08-22T20:47:13.418Z,22.9
2022-08-22T20:57:13.971Z,22.9
2022-08-22T21:07:14.319Z,22.6
2022-08-22T21:17:15.084Z,22.6
2022-08-22T21:27:15.646Z,22.5
2022-08-22T21:37:16.463Z,22.2
2022-08-22T21:47:17.175Z,22.2
2022-08-22T21:57:17.545Z,22.1
2022-08-22T22:07:18.365Z,22.2
2022-08-22T22:17:18.572Z,22
2022-08-22T22:27:19.261Z,21.8
2022-08-22T22:37:20.281Z,21.9
2022-08-22T22:47:20.932Z,21.6
2022-08-22T22:57:25.337Z,21.5
2022-08-22T23:07:21.746Z,21.2
2022-08-22T23:17:21.980Z,21
2022-08-22T23:27:22.966Z,20.8
2022-08-22T23:37:23.583Z,20.7
2022-08-22T23:47:23.802Z,20.5
2022-08-22T23:57:26.478Z,20.4
